sensor_id;sensor_type;location;lat;lon;timestamp;temperature;humidity
16441;DHT22;8330;-33.858;151.184;2024-02-21T00:25:01;25.00;99.90
16441;DHT22;8330;-33.858;151.184;2024-02-21T00:28:26;25.20;99.90
16441;DHT22;8330;-33.858;151.184;2024-02-21T00:31:27;25.30;99.90
16441;DHT22;8330;-33.858;151.184;2024-02-21T00:35:00;25.30;99.90
16441;DHT22;8330;-33.858;151.184;2024-02-21T00:41:42;25.40;99.90
16441;DHT22;8330;-33.858;151.184;2024-02-21T00:50:41;25.50;99.90
16441;DHT22;8330;-33.858;151.184;2024-02-21T00:53:26;25.50;99.90
16441;DHT22;8330;-33.858;151.184;2024-02-21T00:59:06;25.60;99.90
16441;DHT22;8330;-33.858;151.184;2024-02-21T01:02:00;25.70;99.90
16441;DHT22;8330;-33.858;151.184;2024-02-21T01:04:41;25.70;99.90
16441;DHT22;8330;-33.858;151.184;2024-02-21T01:07:26;25.60;99.90
16441;DHT22;8330;-33.858;151.184;2024-02-21T01:10:09;25.50;99.90
16441;DHT22;8330;-33.858;151.184;2024-02-21T01:12:52;25.50;99.90
16441;DHT22;8330;-33.858;151.184;2024-02-21T01:15:34;25.50;99.90
16441;DHT22;8330;-33.858;151.184;2024-02-21T01:18:34;25.50;99.90
16441;DHT22;8330;-33.858;151.184;2024-02-21T01:21:21;25.50;99.90
16441;DHT22;8330;-33.858;151.184;2024-02-21T01:24:03;25.50;99.90
16441;DHT22;8330;-33.858;151.184;2024-02-21T01:26:39;25.60;99.90
16441;DHT22;8330;-33.858;151.184;2024-02-21T01:29:29;25.50;99.90
16441;DHT22;8330;-33.858;151.184;2024-02-21T01:39:04;25.60;99.90
16441;DHT22;8330;-33.858;151.184;2024-02-21T01:41:41;25.70;99.90
16441;DHT22;8330;-33.858;151.184;2024-02-21T01:44:29;25.80;99.90
16441;DHT22;8330;-33.858;151.184;2024-02-21T01:47:11;25.70;99.90
16441;DHT22;8330;-33.858;151.184;2024-02-21T01:50:09;25.80;99.90
16441;DHT22;8330;-33.858;151.184;2024-02-21T02:03:39;25.90;99.90
16441;DHT22;8330;-33.858;151.184;2024-02-21T02:56:59;26.70;99.90
16441;DHT22;8330;-33.858;151.184;2024-02-21T03:29:53;27.20;99.90
16441;DHT22;8330;-33.858;151.184;2024-02-21T04:49:32;27.60;99.90
16441;DHT22;8330;-33.858;151.184;2024-02-21T04:59:48;27.50;99.90
16441;DHT22;8330;-33.858;151.184;2024-02-21T05:13:36;27.90;99.90
16441;DHT22;8330;-33.858;151.184;2024-02-21T05:20:04;27.90;99.90
16441;DHT22;8330;-33.858;151.184;2024-02-21T06:13:10;27.60;99.90
16441;DHT22;8330;-33.858;151.184;2024-02-21T07:28:49;28.70;99.90
16441;DHT22;8330;-33.858;151.184;2024-02-21T07:35:07;30.00;99.90
16441;DHT22;8330;-33.858;151.184;2024-02-21T08:12:51;28.10;99.90
16441;DHT22;8330;-33.858;151.184;2024-02-21T08:15:36;27.90;99.90
16441;DHT22;8330;-33.858;151.184;2024-02-21T08:18:09;27.70;99.90
16441;DHT22;8330;-33.858;151.184;2024-02-21T08:20:42;27.50;99.90
16441;DHT22;8330;-33.858;151.184;2024-02-21T08:23:31;27.30;99.90
16441;DHT22;8330;-33.858;151.184;2024-02-21T08:26:05;27.20;99.90
16441;DHT22;8330;-33.858;151.184;2024-02-21T08:28:43;27.00;99.90
16441;DHT22;8330;-33.858;151.184;2024-02-21T08:31:22;26.90;99.90
16441;DHT22;8330;-33.858;151.184;2024-02-21T08:34:11;26.80;99.90
16441;DHT22;8330;-33.858;151.184;2024-02-21T08:36:49;26.70;99.90
16441;DHT22;8330;-33.858;151.184;2024-02-21T08:39:22;26.60;99.90
16441;DHT22;8330;-33.858;151.184;2024-02-21T08:42:14;26.50;99.90
16441;DHT22;8330;-33.858;151.184;2024-02-21T08:45:11;26.40;99.90
16441;DHT22;8330;-33.858;151.184;2024-02-21T08:47:54;26.40;99.90
16441;DHT22;8330;-33.858;151.184;2024-02-21T08:50:30;26.40;99.90
16441;DHT22;8330;-33.858;151.184;2024-02-21T08:53:06;26.40;99.90
16441;DHT22;8330;-33.858;151.184;2024-02-21T08:55:39;26.30;99.90
16441;DHT22;8330;-33.858;151.184;2024-02-21T08:58:30;26.30;99.90
16441;DHT22;8330;-33.858;151.184;2024-02-21T09:01:16;26.20;99.90
16441;DHT22;8330;-33.858;151.184;2024-02-21T09:03:52;26.00;99.90
16441;DHT22;8330;-33.858;151.184;2024-02-21T09:06:31;26.00;99.90
16441;DHT22;8330;-33.858;151.184;2024-02-21T09:09:07;25.90;99.90
16441;DHT22;8330;-33.858;151.184;2024-02-21T09:11:50;25.90;99.90
16441;DHT22;8330;-33.858;151.184;2024-02-21T09:14:23;25.80;99.90
16441;DHT22;8330;-33.858;151.184;2024-02-21T09:16:58;25.80;99.90
16441;DHT22;8330;-33.858;151.184;2024-02-21T09:19:30;25.80;99.90
16441;DHT22;8330;-33.858;151.184;2024-02-21T09:22:06;25.80;99.90
16441;DHT22;8330;-33.858;151.184;2024-02-21T09:24:51;25.70;99.90
16441;DHT22;8330;-33.858;151.184;2024-02-21T09:27:22;25.70;99.90
16441;DHT22;8330;-33.858;151.184;2024-02-21T09:30:07;25.60;99.90
16441;DHT22;8330;-33.858;151.184;2024-02-21T09:32:46;25.60;99.90
16441;DHT22;8330;-33.858;151.184;2024-02-21T09:35:22;25.50;99.90
16441;DHT22;8330;-33.858;151.184;2024-02-21T09:37:55;25.50;99.90
16441;DHT22;8330;-33.858;151.184;2024-02-21T09:40:45;25.50;99.90
16441;DHT22;8330;-33.858;151.184;2024-02-21T09:43:26;25.50;99.90
16441;DHT22;8330;-33.858;151.184;2024-02-21T09:45:59;25.50;99.90
16441;DHT22;8330;-33.858;151.184;2024-02-21T09:49:04;25.50;99.90
16441;DHT22;8330;-33.858;151.184;2024-02-21T09:51:43;25.50;99.90
16441;DHT22;8330;-33.858;151.184;2024-02-21T09:54:30;25.50;99.90
16441;DHT22;8330;-33.858;151.184;2024-02-21T09:57:24;25.50;99.90
16441;DHT22;8330;-33.858;151.184;2024-02-21T10:00:25;25.40;99.90
16441;DHT22;8330;-33.858;151.184;2024-02-21T10:03:20;25.40;99.90
16441;DHT22;8330;-33.858;151.184;2024-02-21T10:06:16;25.30;99.90
16441;DHT22;8330;-33.858;151.184;2024-02-21T10:09:03;25.40;99.90
16441;DHT22;8330;-33.858;151.184;2024-02-21T10:11:39;25.40;99.90
16441;DHT22;8330;-33.858;151.184;2024-02-21T10:14:27;25.30;99.90
16441;DHT22;8330;-33.858;151.184;2024-02-21T10:17:04;25.40;99.90
16441;DHT22;8330;-33.858;151.184;2024-02-21T10:19:48;25.40;99.90
16441;DHT22;8330;-33.858;151.184;2024-02-21T10:22:42;25.30;99.90
16441;DHT22;8330;-33.858;151.184;2024-02-21T10:25:49;25.30;99.90
16441;DHT22;8330;-33.858;151.184;2024-02-21T10:29:03;25.30;99.90
16441;DHT22;8330;-33.858;151.184;2024-02-21T10:32:03;25.30;99.90
16441;DHT22;8330;-33.858;151.184;2024-02-21T11:37:01;24.90;99.90
16441;DHT22;8330;-33.858;151.184;2024-02-21T11:39:37;24.90;99.90
16441;DHT22;8330;-33.858;151.184;2024-02-21T11:42:29;24.90;99.90
16441;DHT22;8330;-33.858;151.184;2024-02-21T11:45:06;24.90;99.90
16441;DHT22;8330;-33.858;151.184;2024-02-21T11:47:51;24.90;99.90
16441;DHT22;8330;-33.858;151.184;2024-02-21T11:50:36;24.90;99.90
16441;DHT22;8330;-33.858;151.184;2024-02-21T11:53:31;24.80;99.90
16441;DHT22;8330;-33.858;151.184;2024-02-21T12:19:15;24.90;99.90
16441;DHT22;8330;-33.858;151.184;2024-02-21T12:22:01;24.80;99.90
16441;DHT22;8330;-33.858;151.184;2024-02-21T12:24:51;24.80;99.90
16441;DHT22;8330;-33.858;151.184;2024-02-21T12:27:37;24.80;99.90
16441;DHT22;8330;-33.858;151.184;2024-02-21T12:30:12;24.80;99.90
16441;DHT22;8330;-33.858;151.184;2024-02-21T12:32:55;24.70;99.90
16441;DHT22;8330;-33.858;151.184;2024-02-21T12:35:31;24.70;99.90
16441;DHT22;8330;-33.858;151.184;2024-02-21T12:38:04;24.70;99.90
16441;DHT22;8330;-33.858;151.184;2024-02-21T12:40:35;24.70;99.90
16441;DHT22;8330;-33.858;151.184;2024-02-21T12:43:06;24.70;99.90
16441;DHT22;8330;-33.858;151.184;2024-02-21T12:45:37;24.70;99.90
16441;DHT22;8330;-33.858;151.184;2024-02-21T12:48:09;24.70;99.90
16441;DHT22;8330;-33.858;151.184;2024-02-21T12:50:49;24.70;99.90
16441;DHT22;8330;-33.858;151.184;2024-02-21T12:53:23;24.60;99.90
16441;DHT22;8330;-33.858;151.184;2024-02-21T12:55:54;24.60;99.90
16441;DHT22;8330;-33.858;151.184;2024-02-21T12:58:25;24.60;99.90
16441;DHT22;8330;-33.858;151.184;2024-02-21T13:01:02;24.60;99.90
16441;DHT22;8330;-33.858;151.184;2024-02-21T13:03:34;24.50;99.90
16441;DHT22;8330;-33.858;151.184;2024-02-21T13:06:25;24.50;99.90
16441;DHT22;8330;-33.858;151.184;2024-02-21T13:08:56;24.50;99.90
16441;DHT22;8330;-33.858;151.184;2024-02-21T13:11:34;24.50;99.90
16441;DHT22;8330;-33.858;151.184;2024-02-21T13:14:05;24.50;99.90
16441;DHT22;8330;-33.858;151.184;2024-02-21T13:16:38;24.50;99.90
16441;DHT22;8330;-33.858;151.184;2024-02-21T13:19:09;24.50;99.90
16441;DHT22;8330;-33.858;151.184;2024-02-21T13:21:48;24.50;99.90
16441;DHT22;8330;-33.858;151.184;2024-02-21T13:24:21;24.50;99.90
16441;DHT22;8330;-33.858;151.184;2024-02-21T13:26:54;24.40;99.90
16441;DHT22;8330;-33.858;151.184;2024-02-21T13:29:26;24.40;99.90
16441;DHT22;8330;-33.858;151.184;2024-02-21T13:31:57;24.40;99.90
16441;DHT22;8330;-33.858;151.184;2024-02-21T13:34:30;24.40;99.90
16441;DHT22;8330;-33.858;151.184;2024-02-21T13:37:24;24.40;99.90
16441;DHT22;8330;-33.858;151.184;2024-02-21T13:40:08;24.40;99.90
16441;DHT22;8330;-33.858;151.184;2024-02-21T13:42:41;24.40;99.90
16441;DHT22;8330;-33.858;151.184;2024-02-21T13:45:13;24.40;99.90
16441;DHT22;8330;-33.858;151.184;2024-02-21T13:47:48;24.40;99.90
16441;DHT22;8330;-33.858;151.184;2024-02-21T13:50:19;24.40;99.90
16441;DHT22;8330;-33.858;151.184;2024-02-21T13:52:56;24.30;99.90
16441;DHT22;8330;-33.858;151.184;2024-02-21T13:55:29;24.40;99.90
16441;DHT22;8330;-33.858;151.184;2024-02-21T13:58:02;24.30;99.90
16441;DHT22;8330;-33.858;151.184;2024-02-21T14:00:34;24.30;99.90
16441;DHT22;8330;-33.858;151.184;2024-02-21T14:03:05;24.30;99.90
16441;DHT22;8330;-33.858;151.184;2024-02-21T14:05:37;24.30;99.90
16441;DHT22;8330;-33.858;151.184;2024-02-21T14:08:16;24.30;99.90
16441;DHT22;8330;-33.858;151.184;2024-02-21T14:10:48;24.30;99.90
16441;DHT22;8330;-33.858;151.184;2024-02-21T14:13:20;24.30;99.90
16441;DHT22;8330;-33.858;151.184;2024-02-21T14:15:53;24.30;99.90
16441;DHT22;8330;-33.858;151.184;2024-02-21T14:18:24;24.30;99.90
16441;DHT22;8330;-33.858;151.184;2024-02-21T14:20:55;24.30;99.90
16441;DHT22;8330;-33.858;151.184;2024-02-21T14:23:30;24.30;99.90
16441;DHT22;8330;-33.858;151.184;2024-02-21T14:26:01;24.20;99.90
16441;DHT22;8330;-33.858;151.184;2024-02-21T14:28:35;24.20;99.90
16441;DHT22;8330;-33.858;151.184;2024-02-21T14:31:08;24.20;99.90
16441;DHT22;8330;-33.858;151.184;2024-02-21T14:47:43;24.10;99.90
16441;DHT22;8330;-33.858;151.184;2024-02-21T15:17:30;24.10;99.90
16441;DHT22;8330;-33.858;151.184;2024-02-21T15:20:02;24.10;99.90
16441;DHT22;8330;-33.858;151.184;2024-02-21T15:22:35;24.00;99.90
16441;DHT22;8330;-33.858;151.184;2024-02-21T15:25:07;24.00;99.90
16441;DHT22;8330;-33.858;151.184;2024-02-21T15:27:43;24.00;99.90
16441;DHT22;8330;-33.858;151.184;2024-02-21T15:30:16;24.00;99.90
16441;DHT22;8330;-33.858;151.184;2024-02-21T15:32:50;24.00;99.90
16441;DHT22;8330;-33.858;151.184;2024-02-21T15:35:22;23.90;99.90
16441;DHT22;8330;-33.858;151.184;2024-02-21T15:37:52;23.90;99.90
16441;DHT22;8330;-33.858;151.184;2024-02-21T15:40:24;23.90;99.90
16441;DHT22;8330;-33.858;151.184;2024-02-21T15:42:59;23.80;99.90
16441;DHT22;8330;-33.858;151.184;2024-02-21T15:45:30;23.80;99.90
16441;DHT22;8330;-33.858;151.184;2024-02-21T15:48:04;23.80;99.90
16441;DHT22;8330;-33.858;151.184;2024-02-21T15:50:35;23.70;99.90
16441;DHT22;8330;-33.858;151.184;2024-02-21T15:53:07;23.70;99.90
16441;DHT22;8330;-33.858;151.184;2024-02-21T15:55:39;23.70;99.90
16441;DHT22;8330;-33.858;151.184;2024-02-21T15:58:11;23.70;99.90
16441;DHT22;8330;-33.858;151.184;2024-02-21T16:00:43;23.70;99.90
16441;DHT22;8330;-33.858;151.184;2024-02-21T16:03:19;23.80;99.90
16441;DHT22;8330;-33.858;151.184;2024-02-21T16:05:50;23.80;99.90
16441;DHT22;8330;-33.858;151.184;2024-02-21T16:08:25;23.80;99.90
16441;DHT22;8330;-33.858;151.184;2024-02-21T16:10:58;23.80;99.90
16441;DHT22;8330;-33.858;151.184;2024-02-21T16:13:31;23.80;99.90
16441;DHT22;8330;-33.858;151.184;2024-02-21T16:16:03;23.80;99.90
16441;DHT22;8330;-33.858;151.184;2024-02-21T16:18:38;23.80;99.90
16441;DHT22;8330;-33.858;151.184;2024-02-21T16:21:09;23.80;99.90
16441;DHT22;8330;-33.858;151.184;2024-02-21T16:23:41;23.90;99.90
16441;DHT22;8330;-33.858;151.184;2024-02-21T16:26:13;23.90;99.90
16441;DHT22;8330;-33.858;151.184;2024-02-21T16:28:45;23.90;99.90
16441;DHT22;8330;-33.858;151.184;2024-02-21T16:31:19;23.90;99.90
16441;DHT22;8330;-33.858;151.184;2024-02-21T16:33:53;23.90;99.90
16441;DHT22;8330;-33.858;151.184;2024-02-21T16:36:25;23.90;99.90
16441;DHT22;8330;-33.858;151.184;2024-02-21T16:38:59;23.90;99.90
16441;DHT22;8330;-33.858;151.184;2024-02-21T16:41:33;23.90;99.90
16441;DHT22;8330;-33.858;151.184;2024-02-21T16:44:04;23.90;99.90
16441;DHT22;8330;-33.858;151.184;2024-02-21T16:46:36;23.90;99.90
16441;DHT22;8330;-33.858;151.184;2024-02-21T16:49:13;23.90;99.90
16441;DHT22;8330;-33.858;151.184;2024-02-21T16:51:45;23.90;99.90
16441;DHT22;8330;-33.858;151.184;2024-02-21T16:54:21;23.90;99.90
16441;DHT22;8330;-33.858;151.184;2024-02-21T16:56:53;23.90;99.90
16441;DHT22;8330;-33.858;151.184;2024-02-21T16:59:28;23.80;99.90
16441;DHT22;8330;-33.858;151.184;2024-02-21T17:01:59;23.80;99.90
16441;DHT22;8330;-33.858;151.184;2024-02-21T17:04:35;23.70;99.90
16441;DHT22;8330;-33.858;151.184;2024-02-21T17:07:08;23.70;99.90
16441;DHT22;8330;-33.858;151.184;2024-02-21T17:09:39;23.70;99.90
16441;DHT22;8330;-33.858;151.184;2024-02-21T17:12:10;23.70;99.90
16441;DHT22;8330;-33.858;151.184;2024-02-21T17:14:43;23.70;99.90
16441;DHT22;8330;-33.858;151.184;2024-02-21T17:17:14;23.70;99.90
16441;DHT22;8330;-33.858;151.184;2024-02-21T17:19:49;23.70;99.90
16441;DHT22;8330;-33.858;151.184;2024-02-21T17:22:21;23.60;99.90
16441;DHT22;8330;-33.858;151.184;2024-02-21T17:24:54;23.60;99.90
16441;DHT22;8330;-33.858;151.184;2024-02-21T17:27:25;23.60;99.90
16441;DHT22;8330;-33.858;151.184;2024-02-21T17:29:58;23.60;99.90
16441;DHT22;8330;-33.858;151.184;2024-02-21T17:32:31;23.60;99.90
16441;DHT22;8330;-33.858;151.184;2024-02-21T17:35:08;23.60;99.90
16441;DHT22;8330;-33.858;151.184;2024-02-21T17:37:39;23.60;99.90
16441;DHT22;8330;-33.858;151.184;2024-02-21T17:40:11;23.60;99.90
16441;DHT22;8330;-33.858;151.184;2024-02-21T17:42:42;23.60;99.90
16441;DHT22;8330;-33.858;151.184;2024-02-21T17:45:13;23.60;99.90
16441;DHT22;8330;-33.858;151.184;2024-02-21T17:47:45;23.60;99.90
16441;DHT22;8330;-33.858;151.184;2024-02-21T17:50:21;23.60;99.90
16441;DHT22;8330;-33.858;151.184;2024-02-21T17:52:52;23.60;99.90
16441;DHT22;8330;-33.858;151.184;2024-02-21T17:55:25;23.50;99.90
16441;DHT22;8330;-33.858;151.184;2024-02-21T17:57:56;23.50;99.90
16441;DHT22;8330;-33.858;151.184;2024-02-21T18:00:27;23.50;99.90
16441;DHT22;8330;-33.858;151.184;2024-02-21T18:02:59;23.40;99.90
16441;DHT22;8330;-33.858;151.184;2024-02-21T18:05:35;23.50;99.90
16441;DHT22;8330;-33.858;151.184;2024-02-21T18:08:07;23.40;99.90
16441;DHT22;8330;-33.858;151.184;2024-02-21T18:10:40;23.40;99.90
16441;DHT22;8330;-33.858;151.184;2024-02-21T18:13:14;23.40;99.90
16441;DHT22;8330;-33.858;151.184;2024-02-21T18:15:46;23.40;99.90
16441;DHT22;8330;-33.858;151.184;2024-02-21T18:18:17;23.40;99.90
16441;DHT22;8330;-33.858;151.184;2024-02-21T18:20:52;23.30;99.90
16441;DHT22;8330;-33.858;151.184;2024-02-21T18:23:23;23.30;99.90
16441;DHT22;8330;-33.858;151.184;2024-02-21T18:25:57;23.30;99.90
16441;DHT22;8330;-33.858;151.184;2024-02-21T18:28:31;23.30;99.90
16441;DHT22;8330;-33.858;151.184;2024-02-21T18:31:16;23.30;99.90
16441;DHT22;8330;-33.858;151.184;2024-02-21T18:33:47;23.30;99.90
16441;DHT22;8330;-33.858;151.184;2024-02-21T18:36:22;23.30;99.90
16441;DHT22;8330;-33.858;151.184;2024-02-21T18:38:55;23.30;99.90
16441;DHT22;8330;-33.858;151.184;2024-02-21T18:41:30;23.30;99.90
16441;DHT22;8330;-33.858;151.184;2024-02-21T18:44:03;23.30;99.90
16441;DHT22;8330;-33.858;151.184;2024-02-21T18:46:34;23.40;99.90
16441;DHT22;8330;-33.858;151.184;2024-02-21T18:49:08;23.40;99.90
16441;DHT22;8330;-33.858;151.184;2024-02-21T18:51:42;23.40;99.90
16441;DHT22;8330;-33.858;151.184;2024-02-21T18:54:13;23.40;99.90
16441;DHT22;8330;-33.858;151.184;2024-02-21T18:56:47;23.40;99.90
16441;DHT22;8330;-33.858;151.184;2024-02-21T18:59:19;23.40;99.90
16441;DHT22;8330;-33.858;151.184;2024-02-21T19:01:52;23.40;99.90
16441;DHT22;8330;-33.858;151.184;2024-02-21T19:04:25;23.40;99.90
16441;DHT22;8330;-33.858;151.184;2024-02-21T19:06:59;23.40;99.90
16441;DHT22;8330;-33.858;151.184;2024-02-21T19:09:32;23.40;99.90
16441;DHT22;8330;-33.858;151.184;2024-02-21T19:12:05;23.30;99.90
16441;DHT22;8330;-33.858;151.184;2024-02-21T19:14:36;23.30;99.90
16441;DHT22;8330;-33.858;151.184;2024-02-21T19:17:08;23.30;99.90
16441;DHT22;8330;-33.858;151.184;2024-02-21T19:19:41;23.30;99.90
16441;DHT22;8330;-33.858;151.184;2024-02-21T19:22:14;23.30;99.90
16441;DHT22;8330;-33.858;151.184;2024-02-21T19:24:46;23.30;99.90
16441;DHT22;8330;-33.858;151.184;2024-02-21T19:27:19;23.30;99.90
16441;DHT22;8330;-33.858;151.184;2024-02-21T19:29:51;23.30;99.90
16441;DHT22;8330;-33.858;151.184;2024-02-21T19:32:22;23.20;99.90
16441;DHT22;8330;-33.858;151.184;2024-02-21T19:34:54;23.20;99.90
16441;DHT22;8330;-33.858;151.184;2024-02-21T19:37:28;23.20;99.90
16441;DHT22;8330;-33.858;151.184;2024-02-21T19:39:59;23.20;99.90
16441;DHT22;8330;-33.858;151.184;2024-02-21T19:42:31;23.20;99.90
16441;DHT22;8330;-33.858;151.184;2024-02-21T19:45:06;23.20;99.90
16441;DHT22;8330;-33.858;151.184;2024-02-21T19:47:38;23.20;99.90
16441;DHT22;8330;-33.858;151.184;2024-02-21T19:50:11;23.20;99.90
16441;DHT22;8330;-33.858;151.184;2024-02-21T19:52:51;23.10;99.90
16441;DHT22;8330;-33.858;151.184;2024-02-21T19:55:24;23.10;99.90
16441;DHT22;8330;-33.858;151.184;2024-02-21T19:57:55;23.10;99.90
16441;DHT22;8330;-33.858;151.184;2024-02-21T20:00:28;23.10;99.90
16441;DHT22;8330;-33.858;151.184;2024-02-21T20:03:03;23.10;99.90
16441;DHT22;8330;-33.858;151.184;2024-02-21T20:05:37;23.10;99.90
16441;DHT22;8330;-33.858;151.184;2024-02-21T20:08:17;23.10;99.90
16441;DHT22;8330;-33.858;151.184;2024-02-21T20:10:52;23.10;99.90
16441;DHT22;8330;-33.858;151.184;2024-02-21T20:13:23;23.10;99.90
16441;DHT22;8330;-33.858;151.184;2024-02-21T20:15:54;23.10;99.90
16441;DHT22;8330;-33.858;151.184;2024-02-21T20:18:27;23.10;99.90
16441;DHT22;8330;-33.858;151.184;2024-02-21T20:20:58;23.10;99.90
16441;DHT22;8330;-33.858;151.184;2024-02-21T20:23:33;23.10;99.90
16441;DHT22;8330;-33.858;151.184;2024-02-21T20:26:08;23.10;99.90
16441;DHT22;8330;-33.858;151.184;2024-02-21T20:28:41;23.10;99.90
16441;DHT22;8330;-33.858;151.184;2024-02-21T20:31:12;23.00;99.90
16441;DHT22;8330;-33.858;151.184;2024-02-21T20:33:47;23.00;99.90
16441;DHT22;8330;-33.858;151.184;2024-02-21T20:36:20;23.00;99.90
16441;DHT22;8330;-33.858;151.184;2024-02-21T20:38:53;23.00;99.90
16441;DHT22;8330;-33.858;151.184;2024-02-21T20:41:24;23.00;99.90
16441;DHT22;8330;-33.858;151.184;2024-02-21T20:43:57;23.00;99.90
16441;DHT22;8330;-33.858;151.184;2024-02-21T20:46:30;23.00;99.90
16441;DHT22;8330;-33.858;151.184;2024-02-21T20:49:04;23.00;99.90
16441;DHT22;8330;-33.858;151.184;2024-02-21T20:51:35;23.10;99.90
16441;DHT22;8330;-33.858;151.184;2024-02-21T20:54:15;23.10;99.90
16441;DHT22;8330;-33.858;151.184;2024-02-21T20:56:50;23.20;99.90
16441;DHT22;8330;-33.858;151.184;2024-02-21T20:59:24;23.20;99.90
16441;DHT22;8330;-33.858;151.184;2024-02-21T21:01:54;23.20;99.90
16441;DHT22;8330;-33.858;151.184;2024-02-21T21:04:26;23.20;99.90
16441;DHT22;8330;-33.858;151.184;2024-02-21T21:06:59;23.20;99.90
16441;DHT22;8330;-33.858;151.184;2024-02-21T21:09:38;23.30;99.90
16441;DHT22;8330;-33.858;151.184;2024-02-21T21:12:10;23.40;99.90
16441;DHT22;8330;-33.858;151.184;2024-02-21T21:14:42;23.40;99.90
16441;DHT22;8330;-33.858;151.184;2024-02-21T21:17:16;23.50;99.90
16441;DHT22;8330;-33.858;151.184;2024-02-21T21:19:59;23.50;99.90
16441;DHT22;8330;-33.858;151.184;2024-02-21T21:22:39;23.60;99.90
16441;DHT22;8330;-33.858;151.184;2024-02-21T21:25:32;23.60;99.90
16441;DHT22;8330;-33.858;151.184;2024-02-21T21:28:10;23.70;99.90
16441;DHT22;8330;-33.858;151.184;2024-02-21T21:30:44;23.70;99.90
16441;DHT22;8330;-33.858;151.184;2024-02-21T21:33:18;23.70;99.90
16441;DHT22;8330;-33.858;151.184;2024-02-21T21:35:51;23.80;99.90
16441;DHT22;8330;-33.858;151.184;2024-02-21T21:38:25;23.90;99.90
16441;DHT22;8330;-33.858;151.184;2024-02-21T21:40:59;23.90;99.90
16441;DHT22;8330;-33.858;151.184;2024-02-21T21:43:32;24.00;99.90
16441;DHT22;8330;-33.858;151.184;2024-02-21T21:46:11;24.00;99.90
16441;DHT22;8330;-33.858;151.184;2024-02-21T21:48:49;24.10;99.90
16441;DHT22;8330;-33.858;151.184;2024-02-21T21:51:20;24.10;99.90
16441;DHT22;8330;-33.858;151.184;2024-02-21T21:54:00;24.20;99.90
16441;DHT22;8330;-33.858;151.184;2024-02-21T21:57:01;24.30;99.90
16441;DHT22;8330;-33.858;151.184;2024-02-21T21:59:33;24.30;99.90
16441;DHT22;8330;-33.858;151.184;2024-02-21T22:02:06;24.50;99.90
16441;DHT22;8330;-33.858;151.184;2024-02-21T22:04:38;24.50;99.90
16441;DHT22;8330;-33.858;151.184;2024-02-21T22:07:13;24.60;99.90
16441;DHT22;8330;-33.858;151.184;2024-02-21T22:09:48;24.60;99.90
16441;DHT22;8330;-33.858;151.184;2024-02-21T22:12:23;24.60;99.90
16441;DHT22;8330;-33.858;151.184;2024-02-21T22:14:57;24.70;99.90
16441;DHT22;8330;-33.858;151.184;2024-02-21T22:17:32;24.70;99.90
16441;DHT22;8330;-33.858;151.184;2024-02-21T22:20:09;24.80;99.90
16441;DHT22;8330;-33.858;151.184;2024-02-21T22:22:49;24.90;99.90
16441;DHT22;8330;-33.858;151.184;2024-02-21T22:25:21;25.00;99.90
16441;DHT22;8330;-33.858;151.184;2024-02-21T22:27:59;25.00;99.90
16441;DHT22;8330;-33.858;151.184;2024-02-21T22:30:30;25.10;99.90
16441;DHT22;8330;-33.858;151.184;2024-02-21T22:33:02;25.20;99.90
16441;DHT22;8330;-33.858;151.184;2024-02-21T22:35:37;25.20;99.90
16441;DHT22;8330;-33.858;151.184;2024-02-21T22:38:07;25.20;99.90
16441;DHT22;8330;-33.858;151.184;2024-02-21T22:40:43;25.30;99.90
16441;DHT22;8330;-33.858;151.184;2024-02-21T22:43:33;25.50;99.90
16441;DHT22;8330;-33.858;151.184;2024-02-21T22:46:06;25.50;99.90
16441;DHT22;8330;-33.858;151.184;2024-02-21T22:48:38;25.50;99.90
16441;DHT22;8330;-33.858;151.184;2024-02-21T22:51:10;25.40;99.90
16441;DHT22;8330;-33.858;151.184;2024-02-21T22:53:42;25.50;99.90
16441;DHT22;8330;-33.858;151.184;2024-02-21T22:56:14;25.50;99.90
16441;DHT22;8330;-33.858;151.184;2024-02-21T22:58:55;25.50;99.90
16441;DHT22;8330;-33.858;151.184;2024-02-21T23:01:35;25.60;99.90
16441;DHT22;8330;-33.858;151.184;2024-02-21T23:04:10;25.70;99.90
16441;DHT22;8330;-33.858;151.184;2024-02-21T23:06:42;25.70;99.90
16441;DHT22;8330;-33.858;151.184;2024-02-21T23:09:15;25.70;99.90
16441;DHT22;8330;-33.858;151.184;2024-02-21T23:11:52;25.80;99.90
16441;DHT22;8330;-33.858;151.184;2024-02-21T23:14:44;25.80;99.90
16441;DHT22;8330;-33.858;151.184;2024-02-21T23:17:18;25.80;99.90
16441;DHT22;8330;-33.858;151.184;2024-02-21T23:19:49;25.90;99.90
16441;DHT22;8330;-33.858;151.184;2024-02-21T23:22:22;26.00;99.90
16441;DHT22;8330;-33.858;151.184;2024-02-21T23:24:54;26.10;99.90
16441;DHT22;8330;-33.858;151.184;2024-02-21T23:27:31;26.20;99.90
16441;DHT22;8330;-33.858;151.184;2024-02-21T23:30:09;26.20;99.90
16441;DHT22;8330;-33.858;151.184;2024-02-21T23:32:42;26.30;99.90
16441;DHT22;8330;-33.858;151.184;2024-02-21T23:35:18;26.40;99.90
16441;DHT22;8330;-33.858;151.184;2024-02-21T23:37:53;26.40;99.90
16441;DHT22;8330;-33.858;151.184;2024-02-21T23:40:24;26.50;99.90
16441;DHT22;8330;-33.858;151.184;2024-02-21T23:42:55;26.60;99.90
16441;DHT22;8330;-33.858;151.184;2024-02-21T23:45:32;26.70;99.90
16441;DHT22;8330;-33.858;151.184;2024-02-21T23:48:13;26.80;99.90
16441;DHT22;8330;-33.858;151.184;2024-02-21T23:50:56;26.80;99.90
16441;DHT22;8330;-33.858;151.184;2024-02-21T23:53:40;26.70;99.90
16441;DHT22;8330;-33.858;151.184;2024-02-21T23:56:28;26.80;99.90
16441;DHT22;8330;-33.858;151.184;2024-02-21T23:59:24;26.80;99.90
